createdAt,value
2019-01-30T00:00:40.842Z,24.74
2019-01-30T00:03:07.528Z,24.75
2019-01-30T00:05:34.180Z,24.72
2019-01-30T00:08:00.825Z,24.73
2019-01-30T00:10:28.860Z,24.72
2019-01-30T00:12:54.109Z,24.69
2019-01-30T00:15:20.756Z,24.64
2019-01-30T00:17:47.450Z,24.67
2019-01-30T00:20:14.097Z,24.64
2019-01-30T00:22:40.746Z,24.63
2019-01-30T00:25:07.391Z,24.61
2019-01-30T00:27:34.027Z,24.60
2019-01-30T00:30:04.095Z,24.63
2019-01-30T00:32:28.769Z,24.61
2019-01-30T00:34:54.022Z,24.61
2019-01-30T00:37:20.679Z,24.58
2019-01-30T00:39:47.322Z,24.58
2019-01-30T00:42:13.970Z,24.57
2019-01-30T00:44:40.674Z,24.55
2019-01-30T00:47:15.778Z,24.59
2019-01-30T00:49:33.964Z,24.54
2019-01-30T00:52:00.652Z,24.58
2019-01-30T00:54:32.218Z,24.56
2019-01-30T00:56:53.946Z,24.58
2019-01-30T00:59:20.632Z,24.57
2019-01-30T01:01:47.340Z,24.52
2019-01-30T01:04:13.997Z,24.55
2019-01-30T01:06:40.650Z,24.53
2019-01-30T01:09:07.293Z,24.51
2019-01-30T01:11:33.947Z,24.56
2019-01-30T01:14:00.634Z,24.53
2019-01-30T01:16:27.272Z,24.52
2019-01-30T01:18:53.961Z,24.49
2019-01-30T01:21:20.650Z,24.49
2019-01-30T01:23:47.330Z,24.51
2019-01-30T01:26:13.982Z,24.49
2019-01-30T01:28:40.612Z,24.47
2019-01-30T01:31:07.262Z,24.44
2019-01-30T01:33:33.926Z,24.42
2019-01-30T01:36:00.572Z,24.45
2019-01-30T01:38:27.212Z,24.42
2019-01-30T01:40:53.878Z,24.43
2019-01-30T01:43:20.527Z,24.41
2019-01-30T01:45:47.197Z,24.41
2019-01-30T01:48:13.831Z,24.42
2019-01-30T01:50:40.469Z,24.40
2019-01-30T01:53:07.115Z,24.41
2019-01-30T01:55:33.754Z,24.39
2019-01-30T01:58:00.396Z,24.38
2019-01-30T02:00:35.265Z,24.40
2019-01-30T02:02:53.737Z,24.37
2019-01-30T02:05:20.381Z,24.37
2019-01-30T02:07:47.032Z,24.36
2019-01-30T02:10:13.715Z,24.33
2019-01-30T02:12:40.353Z,24.36
2019-01-30T02:15:06.997Z,24.32
2019-01-30T02:17:33.639Z,24.32
2019-01-30T02:20:00.314Z,24.26
2019-01-30T02:22:26.977Z,24.29
2019-01-30T02:24:53.626Z,24.30
2019-01-30T02:27:20.297Z,24.33
2019-01-30T02:29:46.941Z,24.30
2019-01-30T02:32:13.584Z,24.25
2019-01-30T02:34:40.242Z,24.29
2019-01-30T02:37:06.996Z,24.17
2019-01-30T02:39:33.634Z,24.26
2019-01-30T02:42:00.281Z,24.28
2019-01-30T02:44:26.919Z,24.24
2019-01-30T02:46:53.616Z,24.28
2019-01-30T02:49:20.416Z,24.26
2019-01-30T02:51:47.058Z,24.28
2019-01-30T02:54:13.717Z,24.24
2019-01-30T02:56:40.350Z,24.24
2019-01-30T02:59:07.054Z,24.24
2019-01-30T03:01:33.671Z,24.25
2019-01-30T03:04:00.314Z,24.22
2019-01-30T03:06:26.992Z,24.22
2019-01-30T03:08:53.628Z,24.19
2019-01-30T03:11:20.312Z,24.19
2019-01-30T03:13:46.960Z,24.19
2019-01-30T03:16:13.608Z,24.18
2019-01-30T03:18:40.242Z,24.15
2019-01-30T03:21:06.889Z,24.20
2019-01-30T03:23:33.578Z,24.17
2019-01-30T03:26:00.219Z,24.15
2019-01-30T03:28:26.899Z,24.16
2019-01-30T03:30:53.546Z,24.16
2019-01-30T03:33:20.212Z,24.13
2019-01-30T03:35:46.856Z,24.17
2019-01-30T03:38:13.496Z,24.12
2019-01-30T03:40:40.251Z,24.13
2019-01-30T03:43:06.929Z,24.15
2019-01-30T03:45:33.562Z,24.12
2019-01-30T03:48:00.204Z,24.12
2019-01-30T03:50:26.858Z,24.15
2019-01-30T03:52:53.503Z,24.10
2019-01-30T03:55:20.150Z,24.11
2019-01-30T03:57:46.786Z,24.11
2019-01-30T04:00:13.439Z,24.10
2019-01-30T04:02:40.079Z,24.10
2019-01-30T04:05:06.729Z,24.09
2019-01-30T04:07:33.370Z,24.14
2019-01-30T04:10:00.017Z,23.98
2019-01-30T04:12:26.676Z,24.61
2019-01-30T04:14:53.320Z,25.03
2019-01-30T04:17:20.004Z,25.15
2019-01-30T04:19:46.646Z,25.09
2019-01-30T04:22:13.340Z,25.12
2019-01-30T04:24:40.036Z,25.43
2019-01-30T04:27:06.640Z,25.50
2019-01-30T04:29:33.325Z,25.33
2019-01-30T04:31:59.965Z,25.31
2019-01-30T04:34:26.622Z,25.35
2019-01-30T04:36:53.495Z,24.98
2019-01-30T04:39:20.160Z,24.65
2019-01-30T04:41:46.806Z,24.57
2019-01-30T04:44:13.447Z,24.37
2019-01-30T04:46:40.087Z,24.37
2019-01-30T04:49:06.783Z,24.33
2019-01-30T04:51:33.477Z,24.30
2019-01-30T04:54:00.128Z,24.27
2019-01-30T04:56:26.777Z,24.24
2019-01-30T04:58:53.430Z,24.35
2019-01-30T05:01:20.120Z,24.29
2019-01-30T05:03:46.758Z,24.41
2019-01-30T05:06:13.428Z,24.45
2019-01-30T05:08:40.081Z,24.35
2019-01-30T05:11:06.716Z,24.39
2019-01-30T05:13:33.371Z,24.49
2019-01-30T05:16:00.056Z,24.43
2019-01-30T05:18:26.709Z,24.37
2019-01-30T05:20:53.345Z,24.52
2019-01-30T05:23:20.022Z,24.47
2019-01-30T05:25:46.663Z,24.57
2019-01-30T05:28:13.367Z,24.63
2019-01-30T05:30:40.078Z,24.62
2019-01-30T05:33:07.047Z,24.64
2019-01-30T05:35:33.729Z,24.75
2019-01-30T05:38:00.429Z,24.71
2019-01-30T05:40:27.125Z,24.74
2019-01-30T05:42:53.830Z,24.85
2019-01-30T05:45:20.471Z,24.72
2019-01-30T05:47:47.177Z,24.91
2019-01-30T05:50:13.821Z,24.80
2019-01-30T05:52:40.488Z,24.98
2019-01-30T05:55:08.472Z,25.14
2019-01-30T05:57:33.941Z,25.23
2019-01-30T06:00:00.619Z,25.30
2019-01-30T06:02:27.387Z,25.41
2019-01-30T06:04:54.059Z,25.42
2019-01-30T06:07:20.711Z,25.41
2019-01-30T06:09:47.416Z,25.37
2019-01-30T06:12:14.054Z,25.37
2019-01-30T06:14:40.706Z,25.38
2019-01-30T06:17:09.559Z,25.33
2019-01-30T06:19:34.014Z,25.30
2019-01-30T06:22:00.728Z,25.03
2019-01-30T06:24:27.368Z,25.29
2019-01-30T06:26:54.023Z,25.38
2019-01-30T06:29:20.711Z,25.35
2019-01-30T06:31:47.356Z,25.39
2019-01-30T06:34:14.044Z,25.39
2019-01-30T06:36:40.789Z,25.48
2019-01-30T06:39:07.435Z,25.35
2019-01-30T06:41:34.098Z,25.45
2019-01-30T06:44:00.740Z,25.46
2019-01-30T06:46:27.423Z,25.50
2019-01-30T06:48:56.226Z,25.46
2019-01-30T06:51:22.873Z,25.37
2019-01-30T06:53:49.545Z,25.48
2019-01-30T06:56:16.245Z,25.44
2019-01-30T06:58:42.930Z,25.59
2019-01-30T07:01:09.583Z,26.02
2019-01-30T07:03:36.246Z,25.77
2019-01-30T07:06:02.923Z,25.89
2019-01-30T07:08:29.615Z,25.87
2019-01-30T07:10:56.252Z,25.85
2019-01-30T07:13:24.146Z,25.92
2019-01-30T07:15:49.646Z,26.04
2019-01-30T07:18:16.296Z,25.94
2019-01-30T07:20:43.022Z,26.14
2019-01-30T07:23:09.673Z,25.87
2019-01-30T07:25:36.896Z,26.04
2019-01-30T07:28:03.056Z,26.22
2019-01-30T07:30:29.713Z,26.20
2019-01-30T07:32:56.369Z,26.28
2019-01-30T07:35:23.162Z,26.25
2019-01-30T07:37:49.807Z,26.34
2019-01-30T07:40:16.455Z,26.26
2019-01-30T07:42:43.180Z,26.34
2019-01-30T07:45:09.930Z,26.30
2019-01-30T07:47:36.670Z,26.35
2019-01-30T07:50:03.408Z,26.25
2019-01-30T07:52:32.676Z,26.47
2019-01-30T07:54:56.763Z,26.34
2019-01-30T07:57:23.461Z,26.30
2019-01-30T07:59:50.124Z,26.38
2019-01-30T08:02:16.840Z,26.29
2019-01-30T08:04:43.491Z,26.11
2019-01-30T08:07:10.195Z,26.23
2019-01-30T08:09:36.915Z,26.45
2019-01-30T08:12:03.562Z,26.60
2019-01-30T08:14:30.230Z,26.66
2019-01-30T08:16:57.029Z,26.65
2019-01-30T08:19:23.865Z,26.71
2019-01-30T08:21:50.544Z,26.90
2019-01-30T08:24:17.215Z,26.75
2019-01-30T08:26:44.314Z,26.86
2019-01-30T08:29:10.838Z,26.45
2019-01-30T08:31:37.468Z,26.97
2019-01-30T08:34:04.107Z,26.90
2019-01-30T08:36:30.759Z,27.00
2019-01-30T08:38:57.425Z,26.87
2019-01-30T08:41:24.220Z,26.83
2019-01-30T08:43:50.862Z,26.96
2019-01-30T08:46:17.592Z,26.98
2019-01-30T08:48:44.251Z,27.07
2019-01-30T08:51:10.942Z,27.00
2019-01-30T08:53:37.680Z,26.97
2019-01-30T08:56:04.332Z,26.65
2019-01-30T08:58:33.142Z,27.03
2019-01-30T09:00:59.855Z,26.82
2019-01-30T09:03:26.620Z,27.05
2019-01-30T09:05:54.397Z,27.05
2019-01-30T09:08:21.073Z,26.94
2019-01-30T09:10:47.951Z,27.26
2019-01-30T09:13:14.818Z,27.27
2019-01-30T09:15:41.562Z,27.68
2019-01-30T09:18:08.270Z,27.38
2019-01-30T09:20:34.981Z,27.50
2019-01-30T09:23:01.643Z,27.66
2019-01-30T09:25:28.338Z,27.64
2019-01-30T09:27:55.042Z,27.78
2019-01-30T09:30:21.803Z,28.00
2019-01-30T09:32:48.456Z,28.09
2019-01-30T09:35:15.115Z,28.18
2019-01-30T09:37:41.823Z,28.09
2019-01-30T09:40:08.461Z,28.10
2019-01-30T09:42:35.136Z,28.26
2019-01-30T09:45:03.121Z,28.39
2019-01-30T09:47:28.481Z,28.62
2019-01-30T09:49:55.162Z,28.38
2019-01-30T09:52:26.835Z,28.63
2019-01-30T09:54:48.596Z,28.50
2019-01-30T09:57:15.273Z,28.61
2019-01-30T09:59:41.963Z,28.89
2019-01-30T10:02:08.615Z,29.24
2019-01-30T10:04:35.279Z,29.05
2019-01-30T10:07:01.974Z,29.51
2019-01-30T10:09:28.616Z,29.73
2019-01-30T10:11:55.316Z,29.44
2019-01-30T10:14:21.996Z,29.62
2019-01-30T10:16:48.644Z,29.84
2019-01-30T10:19:15.306Z,29.70
2019-01-30T10:21:41.959Z,29.70
2019-01-30T10:24:08.635Z,29.98
2019-01-30T10:26:35.279Z,30.01
2019-01-30T10:29:01.939Z,30.00
2019-01-30T10:31:28.599Z,29.93
2019-01-30T10:33:55.277Z,29.63
2019-01-30T10:36:21.924Z,29.93
2019-01-30T10:38:48.578Z,29.79
2019-01-30T10:41:15.256Z,29.92
2019-01-30T10:43:41.955Z,30.06
2019-01-30T10:46:08.638Z,30.05
2019-01-30T10:48:36.537Z,29.94
2019-01-30T10:51:01.980Z,30.03
2019-01-30T10:53:28.628Z,30.13
2019-01-30T10:55:55.297Z,30.03
2019-01-30T10:58:28.201Z,30.05
2019-01-30T11:00:54.972Z,30.10
2019-01-30T11:03:21.828Z,29.97
2019-01-30T11:06:05.699Z,30.10
2019-01-30T11:08:36.026Z,30.15
2019-01-30T11:11:07.930Z,30.19
2019-01-30T11:13:29.520Z,30.06
2019-01-30T11:15:56.288Z,30.12
2019-01-30T11:18:23.126Z,30.12
2019-01-30T11:20:49.778Z,29.97
2019-01-30T11:23:16.419Z,30.07
2019-01-30T11:25:43.090Z,30.06
2019-01-30T11:28:09.837Z,30.14
2019-01-30T11:30:36.494Z,30.37
2019-01-30T11:33:03.279Z,30.36
2019-01-30T11:35:29.916Z,30.61
2019-01-30T11:37:56.596Z,30.73
2019-01-30T11:40:23.245Z,30.61
2019-01-30T11:42:49.931Z,30.95
2019-01-30T11:45:16.587Z,31.21
2019-01-30T11:47:43.252Z,31.26
2019-01-30T11:50:09.920Z,31.44
2019-01-30T11:52:39.082Z,31.62
2019-01-30T11:55:05.765Z,31.66
2019-01-30T11:57:32.435Z,31.73
2019-01-30T11:59:59.104Z,31.59
2019-01-30T12:02:25.753Z,31.63
2019-01-30T12:04:52.415Z,31.74
2019-01-30T12:07:19.086Z,31.82
2019-01-30T12:09:45.723Z,31.69
2019-01-30T12:12:12.391Z,31.64
2019-01-30T12:14:39.072Z,31.81
2019-01-30T12:17:05.724Z,31.58
2019-01-30T12:19:32.393Z,31.61
2019-01-30T12:21:59.148Z,31.55
2019-01-30T12:24:25.874Z,31.63
2019-01-30T12:26:52.554Z,31.63
2019-01-30T12:29:19.202Z,31.61
2019-01-30T12:31:45.857Z,31.70
2019-01-30T12:34:12.521Z,31.71
2019-01-30T12:36:39.198Z,31.60
2019-01-30T12:39:05.852Z,31.59
2019-01-30T12:41:32.503Z,31.61
2019-01-30T12:43:59.159Z,31.73
2019-01-30T12:46:26.901Z,31.64
2019-01-30T12:48:52.558Z,31.73
2019-01-30T12:51:19.253Z,31.55
2019-01-30T12:53:45.912Z,31.92
2019-01-30T12:56:12.712Z,31.91
2019-01-30T12:58:39.367Z,31.96
2019-01-30T13:01:06.028Z,32.37
2019-01-30T13:03:32.675Z,32.27
2019-01-30T13:06:00.413Z,32.31
2019-01-30T13:08:27.041Z,32.37
2019-01-30T13:10:53.794Z,32.70
2019-01-30T13:13:20.450Z,32.51
2019-01-30T13:15:47.108Z,32.55
2019-01-30T13:18:18.357Z,32.39
2019-01-30T13:20:40.590Z,32.61
2019-01-30T13:23:07.244Z,32.35
2019-01-30T13:25:33.904Z,32.71
2019-01-30T13:28:00.657Z,32.69
2019-01-30T13:30:27.298Z,32.59
2019-01-30T13:32:53.970Z,32.35
2019-01-30T13:35:20.632Z,32.82
2019-01-30T13:37:47.417Z,32.73
2019-01-30T13:40:14.163Z,32.65
2019-01-30T13:42:40.863Z,32.75
2019-01-30T13:45:07.638Z,32.83
2019-01-30T13:47:34.296Z,33.00
2019-01-30T13:50:00.943Z,32.93
2019-01-30T13:52:27.642Z,32.92
2019-01-30T13:54:54.406Z,32.77
2019-01-30T13:57:21.257Z,32.99
2019-01-30T13:59:47.963Z,32.92
2019-01-30T14:02:14.613Z,32.90
2019-01-30T14:04:41.243Z,32.69
2019-01-30T14:07:07.882Z,32.93
2019-01-30T14:09:34.564Z,32.91
2019-01-30T14:12:01.265Z,32.69
2019-01-30T14:14:29.054Z,32.63
2019-01-30T14:16:55.731Z,32.93
2019-01-30T14:19:22.440Z,32.64
2019-01-30T14:21:49.075Z,33.11
2019-01-30T14:24:15.698Z,33.35
2019-01-30T14:26:45.089Z,33.18
2019-01-30T14:29:11.870Z,33.23
2019-01-30T14:31:38.385Z,33.03
2019-01-30T14:34:05.039Z,32.92
2019-01-30T14:36:31.735Z,33.05
2019-01-30T14:38:58.368Z,33.23
2019-01-30T14:41:25.080Z,33.05
2019-01-30T14:43:51.742Z,32.94
2019-01-30T14:46:18.537Z,32.97
2019-01-30T14:48:45.134Z,32.88
2019-01-30T14:51:14.548Z,32.86
2019-01-30T14:53:41.120Z,32.86
2019-01-30T14:56:07.763Z,33.19
2019-01-30T14:58:34.488Z,33.32
2019-01-30T15:01:01.150Z,33.05
2019-01-30T15:03:27.803Z,33.28
2019-01-30T15:05:54.577Z,33.30
2019-01-30T15:08:21.162Z,33.42
2019-01-30T15:10:47.920Z,33.16
2019-01-30T15:13:14.579Z,33.19
2019-01-30T15:15:44.046Z,33.26
2019-01-30T15:18:07.939Z,33.25
2019-01-30T15:20:34.601Z,33.26
2019-01-30T15:23:01.226Z,33.15
2019-01-30T15:25:27.875Z,33.12
2019-01-30T15:27:54.571Z,33.30
2019-01-30T15:30:21.235Z,33.39
2019-01-30T15:32:47.880Z,33.16
2019-01-30T15:35:14.532Z,33.17
2019-01-30T15:37:41.218Z,33.16
2019-01-30T15:40:07.870Z,33.23
2019-01-30T15:42:34.520Z,33.20
2019-01-30T15:45:01.201Z,33.20
2019-01-30T15:47:27.864Z,33.33
2019-01-30T15:49:54.516Z,33.22
2019-01-30T15:52:21.178Z,33.24
2019-01-30T15:54:47.829Z,33.29
2019-01-30T15:57:14.582Z,32.97
2019-01-30T15:59:41.349Z,33.03
2019-01-30T16:02:07.996Z,32.92
2019-01-30T16:04:34.642Z,33.09
2019-01-30T16:07:01.292Z,33.00
2019-01-30T16:09:27.940Z,32.89
2019-01-30T16:11:54.647Z,32.92
2019-01-30T16:14:21.309Z,32.89
2019-01-30T16:16:48.012Z,32.78
2019-01-30T16:19:14.664Z,32.46
2019-01-30T16:21:41.301Z,32.46
2019-01-30T16:24:07.950Z,32.19
2019-01-30T16:26:34.579Z,32.02
2019-01-30T16:29:01.255Z,31.86
2019-01-30T16:31:27.893Z,31.80
2019-01-30T16:33:54.570Z,31.74
2019-01-30T16:36:21.215Z,31.66
2019-01-30T16:38:47.880Z,31.57
2019-01-30T16:41:14.535Z,31.30
2019-01-30T16:43:41.180Z,31.38
2019-01-30T16:46:07.837Z,31.38
2019-01-30T16:48:34.481Z,31.34
2019-01-30T16:51:01.117Z,31.22
2019-01-30T16:53:27.769Z,31.22
2019-01-30T16:55:54.500Z,31.20
2019-01-30T16:58:21.158Z,31.20
2019-01-30T17:00:47.842Z,31.12
2019-01-30T17:03:14.479Z,30.96
2019-01-30T17:05:41.198Z,30.88
2019-01-30T17:08:08.067Z,30.96
2019-01-30T17:10:34.705Z,30.84
2019-01-30T17:13:01.360Z,30.80
2019-01-30T17:15:28.017Z,30.73
2019-01-30T17:17:54.705Z,30.72
2019-01-30T17:20:21.343Z,30.63
2019-01-30T17:22:47.998Z,30.53
2019-01-30T17:25:14.637Z,30.50
2019-01-30T17:27:41.307Z,30.47
2019-01-30T17:30:07.934Z,30.34
2019-01-30T17:32:34.595Z,30.34
2019-01-30T17:35:01.236Z,30.22
2019-01-30T17:37:27.895Z,30.22
2019-01-30T17:39:54.534Z,30.14
2019-01-30T17:42:21.961Z,30.16
2019-01-30T17:44:47.838Z,30.05
2019-01-30T17:47:14.495Z,30.02
2019-01-30T17:49:41.132Z,29.94
2019-01-30T17:52:07.780Z,29.91
2019-01-30T17:54:34.482Z,29.86
2019-01-30T17:57:01.131Z,29.82
2019-01-30T17:59:27.865Z,29.75
2019-01-30T18:01:54.548Z,29.67
2019-01-30T18:04:21.197Z,29.63
2019-01-30T18:06:47.876Z,29.63
2019-01-30T18:09:14.521Z,29.57
2019-01-30T18:11:41.171Z,29.50
2019-01-30T18:14:07.849Z,29.52
2019-01-30T18:16:34.565Z,29.45
2019-01-30T18:19:01.205Z,29.57
2019-01-30T18:21:27.844Z,29.45
2019-01-30T18:23:54.513Z,29.52
2019-01-30T18:26:21.150Z,29.37
2019-01-30T18:28:48.041Z,29.35
2019-01-30T18:31:14.460Z,29.35
2019-01-30T18:33:41.115Z,29.40
2019-01-30T18:36:07.800Z,29.34
2019-01-30T18:38:35.921Z,29.36
2019-01-30T18:41:01.096Z,29.27
2019-01-30T18:43:27.747Z,29.29
2019-01-30T18:45:54.419Z,29.21
2019-01-30T18:48:21.076Z,29.20
2019-01-30T18:50:47.761Z,29.15
2019-01-30T18:53:14.401Z,29.15
2019-01-30T18:55:41.036Z,29.14
2019-01-30T18:58:07.689Z,29.11
2019-01-30T19:00:34.337Z,29.09
2019-01-30T19:03:00.979Z,29.03
2019-01-30T19:05:27.681Z,29.01
2019-01-30T19:07:54.333Z,28.99
2019-01-30T19:10:20.976Z,28.94
2019-01-30T19:12:47.629Z,28.89
2019-01-30T19:15:14.274Z,28.96
2019-01-30T19:17:41.010Z,28.85
2019-01-30T19:20:07.655Z,28.84
2019-01-30T19:22:34.295Z,28.83
2019-01-30T19:25:00.948Z,28.76
2019-01-30T19:27:27.600Z,28.80
2019-01-30T19:29:54.241Z,28.74
2019-01-30T19:32:20.881Z,28.61
2019-01-30T19:34:47.516Z,28.62
2019-01-30T19:37:14.154Z,28.73
2019-01-30T19:39:40.801Z,28.67
2019-01-30T19:42:07.459Z,28.63
2019-01-30T19:44:34.150Z,28.61
2019-01-30T19:47:03.812Z,28.59
2019-01-30T19:49:30.511Z,28.57
2019-01-30T19:51:57.165Z,28.55
2019-01-30T19:54:23.816Z,28.50
2019-01-30T19:56:50.454Z,28.54
2019-01-30T19:59:17.823Z,28.47
2019-01-30T20:01:43.745Z,28.49
2019-01-30T20:04:10.401Z,28.42
2019-01-30T20:06:37.038Z,28.40
2019-01-30T20:09:03.701Z,28.34
2019-01-30T20:11:30.338Z,28.33
2019-01-30T20:13:56.989Z,28.34
2019-01-30T20:16:23.642Z,28.25
2019-01-30T20:18:50.302Z,28.29
2019-01-30T20:21:16.957Z,28.26
2019-01-30T20:23:43.602Z,28.28
2019-01-30T20:26:10.257Z,28.21
2019-01-30T20:28:36.908Z,28.17
2019-01-30T20:31:03.589Z,28.14
2019-01-30T20:33:30.246Z,28.10
2019-01-30T20:35:56.957Z,28.07
2019-01-30T20:38:23.598Z,28.09
2019-01-30T20:40:50.255Z,28.05
2019-01-30T20:43:16.896Z,28.09
2019-01-30T20:45:43.556Z,28.05
2019-01-30T20:48:10.227Z,28.21
2019-01-30T20:50:36.872Z,28.04
2019-01-30T20:53:03.510Z,28.13
2019-01-30T20:55:30.177Z,28.00
2019-01-30T20:57:56.818Z,27.79
2019-01-30T21:00:23.454Z,27.72
2019-01-30T21:02:50.202Z,27.64
2019-01-30T21:05:16.993Z,27.57
2019-01-30T21:07:43.710Z,27.55
2019-01-30T21:10:10.389Z,27.55
2019-01-30T21:12:37.028Z,27.51
2019-01-30T21:15:03.709Z,27.50
2019-01-30T21:17:30.354Z,27.43
2019-01-30T21:19:57.034Z,27.44
2019-01-30T21:22:23.712Z,27.40
2019-01-30T21:24:50.355Z,27.37
2019-01-30T21:27:17.038Z,27.40
2019-01-30T21:29:43.712Z,27.36
2019-01-30T21:32:10.353Z,27.33
2019-01-30T21:34:37.001Z,27.30
2019-01-30T21:37:03.651Z,27.29
2019-01-30T21:41:56.571Z,27.24
2019-01-30T21:44:23.329Z,27.22
2019-01-30T21:46:49.976Z,27.21
2019-01-30T21:49:16.618Z,27.13
2019-01-30T21:51:43.362Z,27.09
2019-01-30T21:54:09.992Z,27.06
2019-01-30T21:56:36.689Z,27.04
2019-01-30T21:59:03.429Z,26.98
2019-01-30T22:01:30.077Z,26.98
2019-01-30T22:03:56.762Z,26.96
2019-01-30T22:06:23.399Z,26.87
2019-01-30T22:08:50.068Z,26.85
2019-01-30T22:11:16.827Z,26.91
2019-01-30T22:13:43.396Z,26.90
2019-01-30T22:16:10.048Z,26.88
2019-01-30T22:18:36.688Z,26.81
2019-01-30T22:21:03.335Z,26.77
2019-01-30T22:23:29.978Z,26.78
2019-01-30T22:25:56.616Z,26.71
2019-01-30T22:28:23.318Z,26.72
2019-01-30T22:30:49.961Z,26.66
2019-01-30T22:33:16.601Z,26.63
2019-01-30T22:35:43.252Z,26.68
2019-01-30T22:38:12.646Z,26.65
2019-01-30T22:40:36.627Z,26.58
2019-01-30T22:43:03.258Z,26.54
2019-01-30T22:45:29.966Z,26.55
2019-01-30T22:47:56.602Z,26.51
2019-01-30T22:50:23.316Z,26.47
2019-01-30T22:52:49.957Z,26.46
2019-01-30T22:55:16.592Z,26.49
2019-01-30T22:57:43.245Z,26.43
2019-01-30T23:00:09.933Z,26.39
2019-01-30T23:02:36.584Z,26.42
2019-01-30T23:05:03.261Z,26.41
2019-01-30T23:07:29.898Z,26.38
2019-01-30T23:09:56.545Z,26.28
2019-01-30T23:12:23.238Z,26.26
2019-01-30T23:14:49.871Z,26.28
2019-01-30T23:17:16.600Z,26.24
2019-01-30T23:19:43.240Z,26.22
2019-01-30T23:22:09.879Z,26.26
2019-01-30T23:24:36.533Z,26.19
2019-01-30T23:27:03.172Z,26.16
2019-01-30T23:29:29.852Z,26.18
2019-01-30T23:31:56.463Z,26.17
2019-01-30T23:34:23.114Z,26.12
2019-01-30T23:36:49.805Z,26.10
2019-01-30T23:39:16.448Z,26.10
2019-01-30T23:41:43.095Z,26.04
2019-01-30T23:44:09.731Z,26.10
2019-01-30T23:46:36.599Z,26.04
2019-01-30T23:49:03.232Z,25.99
2019-01-30T23:51:29.869Z,26.01
2019-01-30T23:53:56.524Z,25.96
2019-01-30T23:56:23.160Z,25.94
2019-01-30T23:58:49.855Z,25.87
